Papineau, Illinois
Current Conditions -  °F | °C
As of 11:35 PM on Monday 26 Jan 2015 (Local Time) from KIKK Reporting Station
Unknown Precip Unknown Precip  
Wind Chill: 23°   Ceiling: 400
Heat Index: 28°   Visibility: 5mi
Dew Point: 27°   Wind: 5mph
Humidity: 96%   Direction: 130°SE
Pressure: 29.91"   Gusts: NA
Location:  40.97°N, 87.72°W
Report Text: KIKK 270535Z AUTO 13004KT 5SM UP OVC004 M02/M03 A2991 RMK AO2 T10221028
Loading
Personal Weather Stations






























Interactive Weather Map New forecast layout! Learn more

10-Day Weather Forecast

Advertisements
Track Severe Weather on mobile